Bryan's Hourly Summary for Friday, May 11, 2018
Hour Temp
(f)
RH
(%)
Solar Rad.
(MJ/m2)
Rainfall
(in)
Wind
(mph)
5/11/2018 12:00 AM 74 64 0 0 7.49
5/11/2018 1:00 AM 72 72 0 0 7.28
5/11/2018 2:00 AM 71 81 0 0 6.05
5/11/2018 3:00 AM 70 88 0 0 4.82
5/11/2018 4:00 AM 70 91 0 0 4.46
5/11/2018 5:00 AM 70 93 0 0 6.48
5/11/2018 6:00 AM 71 92 0 0 6.17
5/11/2018 7:00 AM 71 90 0.01 0 6.41
5/11/2018 8:00 AM 72 89 0.22 0 6.02
5/11/2018 9:00 AM 73 80 1.09 0 7.54
5/11/2018 10:00 AM 76 68 1.66 0 8.14
5/11/2018 11:00 AM 78 61 2.27 0 9.25
5/11/2018 12:00 PM 80 54 2.23 0 8.75
5/11/2018 1:00 PM 83 48 3.18 0 10.51
5/11/2018 2:00 PM 84 42 3.08 0 9.93
5/11/2018 3:00 PM 86 34 3.34 0 9.88
5/11/2018 4:00 PM 86 35 2.31 0 9.46
5/11/2018 5:00 PM 85 38 1.59 0 9.49
5/11/2018 6:00 PM 87 36 1.83 0 9.42
5/11/2018 7:00 PM 86 37 1 0 8.23
5/11/2018 8:00 PM 83 43 0.32 0 7.21
5/11/2018 9:00 PM 81 49 0.01 0 6.89
5/11/2018 10:00 PM 79 56 0 0 7.24
5/11/2018 11:00 PM 77 62 0 0 6.68
Data Summary 77 62 24.14 0.00 7.66